Accueil
METAR-TAF:

METAR-TAF

Aéroports :

Châlons-en-Champagne, France

Aéroport Paris Vatry

latitude: 48-46-34N, longitude: 004-11-04E, altitude: 179 m

Observation

Le bulletin a été fait il y a 35 minutes, à 19:00 UTC
Vent 6 kt de nord
Température 20°C
Humidité 68%
Pression 1024 hPa
Visibilité 10 km ou plus
pas de nuages en-dessous de 1500 mètres et pas de cumulonimbus.

METAR: LFOK 241900Z AUTO 36006KT CAVOK 20/14 Q1024 NOSIG

Heure: 21:35 (19:35 UTC)

Prévision

Le bulletin a été fait il y a 2 heures et 35 minutes, à 17:00 UTC
Prévision valable du 24 à 18 UTC au 25 à 18 UTC
Vent 8 kt de nord
Visibilité 10 km ou plus
pas de nuages en-dessous de 1500 mètres et pas de cumulonimbus.
Evoluant progressivement
du 25 à 09 UTC au 25 à 11 UTC
Vent 10 kt de est/nord-est

TAF: LFOK 241700Z 2418/2518 01008KT CAVOK BECMG 2509/2511 07010KT

Observations et prévisions météorologiques de plus de 4000 aéroports (messages METAR et TAF).

Les stations disponibles sont représentées par des disques jaunes et rouges sur la carte.

Passer la souris dessus pour voir le nom de la station.

Cliquer dessus pour voir les observations et prévisions météorologiques.

Pour changer de carte: cliquez sur les boutons verts avec une croix noire pour zoomer, sur le bouton vert avec un tiret pour effectuer un zoom arrière, ou sur les flèches vertes pour les cartes adjacentes.


METAR-TAF: